Time;durP1;ratioP1;P1;durP2;ratioP2;P2;SDS_P1;SDS_P2;PMS_P1;PMS_P2;Temp;Humidity;BMP_temperature;BMP_pressure;BME280_temperature;BME280_humidity;BME280_pressure;Samples;Min_cycle;Max_cycle;Signal;HPM_P1;HPM_P2
2023/09/12 00:00:15;;;;;;;34.75;28.23;;;;;;;19.52;100.00;101136.38;5069591;28;20391;-67
2023/09/12 00:02:40;;;;;;;33.25;28.02;;;;;;;19.52;100.00;101159.59;5060639;28;20455;-68
2023/09/12 00:05:06;;;;;;;32.72;26.23;;;;;;;19.54;100.00;101164.88;5052909;28;20028;-67
2023/09/12 00:07:31;;;;;;;35.42;29.02;;;;;;;19.49;100.00;101163.97;5051670;28;20119;-68
2023/09/12 00:09:57;;;;;;;33.28;28.27;;;;;;;19.53;100.00;101183.69;5052940;28;20465;-67
2023/09/12 00:12:24;;;;;;;34.20;27.90;;;;;;;19.54;100.00;101188.13;5066067;28;20055;-67
2023/09/12 00:14:50;;;;;;;34.60;28.30;;;;;;;19.51;100.00;101182.44;5062686;28;20137;-67
2023/09/12 00:17:15;;;;;;;35.90;29.77;;;;;;;19.42;100.00;101180.59;5053843;28;20109;-67
2023/09/12 00:19:42;;;;;;;32.30;27.08;;;;;;;19.45;100.00;101182.69;5052148;28;20067;-67
2023/09/12 00:22:07;;;;;;;32.72;27.75;;;;;;;19.47;100.00;101180.34;5063060;28;20024;-67
2023/09/12 00:24:32;;;;;;;34.42;27.88;;;;;;;19.47;100.00;101177.53;5061073;28;20554;-67
2023/09/12 00:26:58;;;;;;;34.08;28.27;;;;;;;19.42;100.00;101176.97;5067071;28;20043;-67
2023/09/12 00:29:23;;;;;;;35.67;28.40;;;;;;;19.40;100.00;101179.34;5060235;28;20548;-68
2023/09/12 00:31:48;;;;;;;33.13;27.48;;;;;;;19.36;100.00;101189.63;5068912;28;20052;-68
2023/09/12 00:34:17;;;;;;;34.17;28.50;;;;;;;19.29;100.00;101193.88;5059638;28;20016;-67
2023/09/12 00:36:43;;;;;;;35.55;28.80;;;;;;;19.29;100.00;101185.47;5051059;28;20029;-67
2023/09/12 00:39:09;;;;;;;34.72;29.15;;;;;;;19.27;100.00;101181.41;5060135;28;20029;-67
2023/09/12 00:41:34;;;;;;;34.05;29.08;;;;;;;19.18;100.00;101187.16;5069560;28;20033;-67
2023/09/12 00:44:00;;;;;;;36.10;29.80;;;;;;;19.10;100.00;101186.13;5064551;28;20115;-67
2023/09/12 00:46:27;;;;;;;34.40;29.15;;;;;;;19.01;100.00;101177.03;5051073;28;20066;-68
2023/09/12 00:48:53;;;;;;;33.83;29.15;;;;;;;18.94;100.00;101182.44;5050875;28;20056;-67
2023/09/12 00:51:20;;;;;;;33.50;27.92;;;;;;;18.96;100.00;101183.72;5056049;28;20109;-68
2023/09/12 00:53:47;;;;;;;37.58;28.65;;;;;;;18.97;100.00;101179.75;5071252;28;20476;-68
2023/09/12 00:56:13;;;;;;;36.53;29.42;;;;;;;18.95;100.00;101176.47;5065771;28;20017;-67
2023/09/12 00:58:38;;;;;;;36.33;29.70;;;;;;;18.90;100.00;101173.91;5050740;28;20115;-67
2023/09/12 01:01:04;;;;;;;35.00;30.42;;;;;;;18.85;100.00;101172.16;5050576;28;20576;-68
2023/09/12 01:03:30;;;;;;;36.45;30.20;;;;;;;18.79;100.00;101161.56;5067195;28;20028;-67
2023/09/12 01:05:58;;;;;;;36.10;30.38;;;;;;;18.78;100.00;101157.94;5055183;28;20024;-67
2023/09/12 01:08:23;;;;;;;34.63;29.60;;;;;;;18.80;100.00;101160.38;5051002;28;20057;-67
2023/09/12 01:10:52;;;;;;;37.15;30.17;;;;;;;18.79;100.00;101158.75;5058564;28;20502;-68
2023/09/12 01:13:18;;;;;;;33.70;28.70;;;;;;;18.82;100.00;101161.66;5063204;28;20491;-68
2023/09/12 01:15:43;;;;;;;38.95;30.63;;;;;;;18.81;100.00;101154.41;5061860;28;20028;-67
2023/09/12 01:18:09;;;;;;;34.97;29.73;;;;;;;18.83;100.00;101154.09;5067368;28;20029;-66
2023/09/12 01:20:36;;;;;;;35.58;29.88;;;;;;;18.79;100.00;101151.19;5055946;28;20024;-67
2023/09/12 01:23:07;;;;;;;35.80;30.23;;;;;;;18.81;100.00;101150.81;5070697;28;20066;-66
2023/09/12 01:25:42;;;;;;;35.05;29.00;;;;;;;18.81;100.00;101148.81;5054016;28;20033;-67
2023/09/12 01:28:09;;;;;;;35.90;30.02;;;;;;;18.77;100.00;101152.69;5057582;28;20036;-67
2023/09/12 01:30:36;;;;;;;37.70;29.98;;;;;;;18.79;100.00;101151.19;5059685;28;20119;-67
2023/09/12 01:33:01;;;;;;;38.90;31.20;;;;;;;18.80;100.00;101158.38;5054688;28;20033;-68
2023/09/12 01:35:27;;;;;;;35.53;29.95;;;;;;;18.81;100.00;101150.81;5068865;28;20032;-67
2023/09/12 01:37:52;;;;;;;36.20;30.00;;;;;;;18.78;100.00;101149.53;5074350;28;20035;-67
2023/09/12 01:40:24;;;;;;;37.03;28.73;;;;;;;18.78;100.00;101148.72;5068511;28;20100;-67
2023/09/12 01:42:52;;;;;;;35.22;29.95;;;;;;;18.76;100.00;101148.25;5054476;28;20124;-68
2023/09/12 01:45:18;;;;;;;35.88;30.05;;;;;;;18.74;100.00;101145.81;5052850;28;20411;-67
2023/09/12 01:47:45;;;;;;;34.47;28.98;;;;;;;18.72;100.00;101148.13;5054397;28;20024;-68
2023/09/12 01:50:13;;;;;;;36.15;30.20;;;;;;;18.72;100.00;101136.94;5057967;28;20025;-67
2023/09/12 01:52:39;;;;;;;35.40;29.33;;;;;;;18.71;100.00;101140.91;5059827;28;20029;-67
2023/09/12 01:55:06;;;;;;;35.38;29.38;;;;;;;18.71;100.00;101138.09;5069109;28;20037;-68
2023/09/12 01:57:32;;;;;;;36.55;30.52;;;;;;;18.66;100.00;101136.34;5067939;28;20032;-67
2023/09/12 01:59:58;;;;;;;36.72;29.73;;;;;;;18.66;100.00;101136.34;5058743;28;20027;-67
2023/09/12 02:02:23;;;;;;;34.53;30.13;;;;;;;18.63;100.00;101141.84;5070836;28;20104;-67
2023/09/12 02:05:13;;;;;;;36.67;30.60;;;;;;;18.60;100.00;101137.78;5052884;28;20029;-67
2023/09/12 02:07:41;;;;;;;36.67;30.35;;;;;;;18.53;100.00;101143.19;5057005;28;20041;-67
2023/09/12 02:10:07;;;;;;;35.33;29.30;;;;;;;18.52;100.00;101144.34;5066405;28;20036;-67
2023/09/12 02:12:32;;;;;;;37.45;31.15;;;;;;;18.49;100.00;101145.03;5054312;28;20029;-67
2023/09/12 02:14:58;;;;;;;35.80;29.63;;;;;;;18.51;100.00;101139.91;5054183;28;20079;-67
2023/09/12 02:17:23;;;;;;;34.80;30.23;;;;;;;18.49;100.00;101139.44;5064147;28;20500;-67
2023/09/12 02:19:48;;;;;;;36.60;30.35;;;;;;;18.50;100.00;101135.47;5068456;28;20036;-67
2023/09/12 02:22:14;;;;;;;37.85;30.85;;;;;;;18.46;100.00;101140.97;5071217;28;20020;-68
2023/09/12 02:24:39;;;;;;;37.00;31.25;;;;;;;18.45;100.00;101139.34;5071162;28;20039;-67
2023/09/12 02:27:05;;;;;;;37.03;29.45;;;;;;;18.43;100.00;101138.06;5055660;28;20017;-67
2023/09/12 02:29:32;;;;;;;37.83;31.60;;;;;;;18.39;100.00;101146.38;5053866;28;20036;-68
2023/09/12 02:31:57;;;;;;;37.63;31.42;;;;;;;18.38;100.00;101142.72;5063037;28;20061;-68
2023/09/12 02:34:23;;;;;;;36.67;31.92;;;;;;;18.36;100.00;101149.84;5054834;28;20029;-67
2023/09/12 02:36:48;;;;;;;34.55;30.23;;;;;;;18.36;100.00;101161.88;5057944;28;20062;-69
2023/09/12 02:39:14;;;;;;;38.90;31.60;;;;;;;18.33;100.00;101159.78;5073864;28;20101;-68
2023/09/12 02:41:39;;;;;;;37.92;31.95;;;;;;;18.31;100.00;101155.72;5055989;28;20075;-68
2023/09/12 02:44:05;;;;;;;39.05;32.22;;;;;;;18.30;100.00;101151.28;5072139;28;20123;-67
2023/09/12 02:46:30;;;;;;;38.78;32.50;;;;;;;18.28;100.00;101153.59;5062932;28;20033;-68
2023/09/12 02:48:55;;;;;;;40.10;33.17;;;;;;;18.23;100.00;101154.66;5070661;28;20032;-68
2023/09/12 02:51:21;;;;;;;36.50;31.45;;;;;;;18.17;100.00;101148.47;5070604;28;20021;-67
2023/09/12 02:53:46;;;;;;;39.30;32.47;;;;;;;18.19;100.00;101162.13;5073741;28;20202;-67
2023/09/12 02:56:12;;;;;;;39.67;32.90;;;;;;;18.17;100.00;101158.88;5062002;28;20029;-68
2023/09/12 02:58:37;;;;;;;38.22;31.38;;;;;;;18.13;100.00;101155.13;5054707;28;20035;-67
2023/09/12 03:01:05;;;;;;;38.75;32.25;;;;;;;18.11;100.00;101157.44;5067175;28;20124;-69
2023/09/12 03:03:30;;;;;;;37.03;30.95;;;;;;;18.10;100.00;101151.06;5073722;28;20090;-68
2023/09/12 03:05:59;;;;;;;37.60;31.42;;;;;;;18.13;100.00;101152.31;5059797;28;20021;-67
2023/09/12 03:08:24;;;;;;;39.05;31.95;;;;;;;18.12;100.00;101151.53;5060430;28;20060;-67
2023/09/12 03:10:55;;;;;;;39.92;33.10;;;;;;;18.09;100.00;101155.81;5059334;28;20386;-67
2023/09/12 03:13:21;;;;;;;38.28;32.53;;;;;;;18.08;100.00;101153.38;5073316;28;20025;-68
2023/09/12 03:15:46;;;;;;;38.00;31.77;;;;;;;18.06;100.00;101152.91;5062389;28;20036;-67
2023/09/12 03:18:11;;;;;;;37.58;33.15;;;;;;;17.97;100.00;101143.81;5066451;28;20028;-68
2023/09/12 03:20:40;;;;;;;37.97;32.53;;;;;;;17.98;100.00;101160.28;5062280;28;20140;-67
2023/09/12 03:23:05;;;;;;;37.72;32.53;;;;;;;17.95;100.00;101154.53;5058315;28;20032;-67
2023/09/12 03:25:35;;;;;;;37.30;31.85;;;;;;;17.88;100.00;101144.72;5066584;28;20040;-67
2023/09/12 03:28:01;;;;;;;40.78;31.83;;;;;;;17.84;100.00;101142.97;5053005;28;20033;-67
2023/09/12 03:30:27;;;;;;;35.35;30.17;;;;;;;17.78;100.00;101137.59;5059410;28;20059;-67
2023/09/12 03:32:52;;;;;;;35.15;30.05;;;;;;;17.76;100.00;101127.91;5072723;28;20035;-67
2023/09/12 03:35:18;;;;;;;35.28;29.75;;;;;;;17.72;100.00;101136.19;5063991;28;20024;-67
2023/09/12 03:37:43;;;;;;;35.00;29.27;;;;;;;17.71;100.00;101139.34;5071361;28;20421;-67
2023/09/12 03:40:10;;;;;;;37.42;31.08;;;;;;;17.68;100.00;101137.22;5065635;28;20070;-67
2023/09/12 03:42:35;;;;;;;35.63;30.77;;;;;;;17.63;100.00;101127.06;5071832;28;20392;-67
2023/09/12 03:45:00;;;;;;;33.67;29.33;;;;;;;17.61;100.00;101130.22;5072841;28;20021;-68
2023/09/12 03:47:26;;;;;;;37.63;31.02;;;;;;;17.59;100.00;101131.75;5056829;28;20029;-68
2023/09/12 03:49:51;;;;;;;36.95;30.35;;;;;;;17.57;100.00;101123.69;5052636;28;20029;-68
2023/09/12 03:52:16;;;;;;;34.75;28.45;;;;;;;17.54;100.00;101129.16;5066140;28;20029;-67
2023/09/12 03:54:42;;;;;;;37.33;30.00;;;;;;;17.52;100.00;101131.53;5053859;28;20036;-68
2023/09/12 03:57:07;;;;;;;36.10;29.67;;;;;;;17.50;100.00;101120.66;5064515;28;20522;-68
2023/09/12 03:59:32;;;;;;;35.85;30.23;;;;;;;17.54;100.00;101121.59;5055733;28;20025;-67
2023/09/12 04:01:58;;;;;;;35.67;29.13;;;;;;;17.60;100.00;101120.22;5066638;28;20384;-67
2023/09/12 04:04:23;;;;;;;38.15;30.98;;;;;;;17.62;100.00;101125.44;5052120;28;20067;-67
2023/09/12 04:06:48;;;;;;;35.17;28.83;;;;;;;17.65;100.00;101141.53;5054125;28;20017;-68
2023/09/12 04:09:14;;;;;;;39.35;31.15;;;;;;;17.65;100.00;101133.16;5052780;28;20115;-67
2023/09/12 04:11:39;;;;;;;39.75;31.52;;;;;;;17.66;100.00;101109.59;5067723;28;20380;-67
2023/09/12 04:14:04;;;;;;;35.90;30.52;;;;;;;17.65;100.00;101119.16;5071682;28;20026;-67
2023/09/12 04:16:30;;;;;;;41.42;32.55;;;;;;;17.58;100.00;101119.72;5068298;28;20029;-67
2023/09/12 04:18:55;;;;;;;41.80;33.25;;;;;;;17.60;100.00;101125.81;5071476;28;20093;-67
2023/09/12 04:21:20;;;;;;;40.45;32.65;;;;;;;17.62;100.00;101117.06;5069599;28;20024;-67
2023/09/12 04:23:45;;;;;;;40.90;33.53;;;;;;;17.66;100.00;101122.78;5071327;28;20047;-68
2023/09/12 04:26:11;;;;;;;40.22;31.15;;;;;;;17.73;100.00;101121.03;5062741;28;20039;-67
2023/09/12 04:28:36;;;;;;;40.22;33.90;;;;;;;17.74;100.00;101114.28;5071568;28;20126;-69
2023/09/12 04:31:03;;;;;;;39.10;32.53;;;;;;;17.76;100.00;101111.94;5063065;28;20403;-68
2023/09/12 04:33:29;;;;;;;40.35;33.35;;;;;;;17.79;100.00;101113.22;5053480;28;20035;-67
2023/09/12 04:35:57;;;;;;;41.65;34.58;;;;;;;17.80;100.00;101116.84;5055862;28;20403;-67
2023/09/12 04:38:24;;;;;;;46.45;37.03;;;;;;;17.86;100.00;101119.06;5055399;28;20032;-68
2023/09/12 04:41:05;;;;;;;46.03;37.50;;;;;;;17.84;100.00;101115.81;5051803;28;20024;-67
2023/09/12 04:43:32;;;;;;;46.50;35.75;;;;;;;17.88;100.00;101127.13;5051596;28;20556;-68
2023/09/12 04:45:57;;;;;;;43.25;35.55;;;;;;;17.89;100.00;101135.16;5051367;28;20393;-67
2023/09/12 04:48:23;;;;;;;41.17;34.03;;;;;;;17.92;100.00;101133.63;5051643;28;20017;-68
2023/09/12 04:50:48;;;;;;;41.35;33.97;;;;;;;17.91;100.00;101134.78;5051142;28;20358;-68
2023/09/12 04:53:13;;;;;;;44.45;35.22;;;;;;;17.93;100.00;101138.06;5057597;28;20443;-68
2023/09/12 04:55:39;;;;;;;44.35;34.42;;;;;;;17.90;100.00;101134.00;5071139;28;20039;-68
2023/09/12 04:58:05;;;;;;;41.08;32.38;;;;;;;17.88;100.00;101129.91;5058950;28;20137;-68
2023/09/12 05:00:31;;;;;;;41.28;33.45;;;;;;;17.87;100.00;101131.88;5053943;28;20032;-69
2023/09/12 05:02:57;;;;;;;42.58;34.17;;;;;;;17.86;100.00;101130.25;5057064;28;20032;-68
2023/09/12 05:05:22;;;;;;;37.75;31.48;;;;;;;17.90;100.00;101136.78;5049752;28;20048;-69
2023/09/12 05:07:47;;;;;;;38.88;32.38;;;;;;;17.91;100.00;101146.00;5051157;28;20098;-69
2023/09/12 05:10:13;;;;;;;37.33;30.73;;;;;;;17.88;100.00;101138.31;5052074;28;20159;-68
2023/09/12 05:12:38;;;;;;;39.75;31.60;;;;;;;17.86;100.00;101146.22;5061032;28;20104;-68
2023/09/12 05:15:04;;;;;;;38.55;31.98;;;;;;;17.80;100.00;101144.84;5062702;28;20098;-68
2023/09/12 05:17:30;;;;;;;38.70;30.33;;;;;;;17.76;100.00;101148.31;5067646;28;20036;-67
2023/09/12 05:19:55;;;;;;;36.63;29.88;;;;;;;17.75;100.00;101152.28;5062638;28;20024;-67
2023/09/12 05:22:20;;;;;;;35.40;28.83;;;;;;;17.80;100.00;101142.84;5056365;28;20027;-66
2023/09/12 05:24:46;;;;;;;36.38;29.90;;;;;;;17.73;100.00;101142.63;5051124;28;20029;-66
2023/09/12 05:27:11;;;;;;;33.95;27.88;;;;;;;17.74;100.00;101145.06;5061090;28;20646;-67
2023/09/12 05:29:37;;;;;;;35.47;27.92;;;;;;;17.74;100.00;101153.44;5059301;28;20048;-67
2023/09/12 05:32:04;;;;;;;34.97;27.48;;;;;;;17.75;100.00;101154.28;5053266;28;20041;-68
2023/09/12 05:34:29;;;;;;;34.97;27.35;;;;;;;17.73;100.00;101143.41;5058139;28;20021;-68
2023/09/12 05:36:54;;;;;;;33.78;27.40;;;;;;;17.70;100.00;101141.34;5050948;28;20468;-68
2023/09/12 05:39:20;;;;;;;35.38;27.52;;;;;;;17.73;100.00;101126.63;5050375;28;20112;-68
2023/09/12 05:41:45;;;;;;;32.10;26.65;;;;;;;17.76;100.00;101130.69;5060569;28;20100;-68
2023/09/12 05:44:12;;;;;;;35.55;27.90;;;;;;;17.82;100.00;101136.88;5064416;28;20082;-68
2023/09/12 05:46:38;;;;;;;33.83;27.60;;;;;;;17.83;100.00;101124.53;5069829;28;20028;-68
2023/09/12 05:49:03;;;;;;;34.58;29.25;;;;;;;17.82;100.00;101136.88;5050796;28;20048;-68
2023/09/12 05:51:29;;;;;;;36.55;30.00;;;;;;;17.77;100.00;101138.78;5061270;28;20029;-68
2023/09/12 05:53:54;;;;;;;35.70;27.98;;;;;;;17.77;100.00;101140.72;5052734;28;20479;-69
2023/09/12 05:56:21;;;;;;;34.97;29.52;;;;;;;17.75;100.00;101141.09;5050414;28;20025;-67
2023/09/12 05:58:46;;;;;;;34.25;28.67;;;;;;;17.75;100.00;101140.28;5062319;28;20078;-68
2023/09/12 06:01:12;;;;;;;36.58;29.15;;;;;;;17.73;100.00;101145.41;5070042;28;20032;-69
2023/09/12 06:03:37;;;;;;;35.17;27.00;;;;;;;17.79;100.00;101141.22;5066756;28;20032;-68
2023/09/12 06:06:03;;;;;;;35.65;28.83;;;;;;;17.81;100.00;101138.88;5059963;28;20047;-68
2023/09/12 06:08:28;;;;;;;35.80;29.13;;;;;;;17.86;100.00;101149.03;5063011;28;20062;-65
2023/09/12 06:10:55;;;;;;;38.45;28.65;;;;;;;17.90;100.00;101149.97;5058328;28;20388;-68
2023/09/12 06:13:20;;;;;;;36.55;28.48;;;;;;;17.90;100.00;101145.19;5062856;28;20029;-69
2023/09/12 06:15:46;;;;;;;35.58;28.25;;;;;;;17.96;100.00;101147.75;5056677;28;20055;-70
2023/09/12 06:18:11;;;;;;;36.08;27.33;;;;;;;18.01;100.00;101148.34;5067604;28;20032;-67
2023/09/12 06:20:36;;;;;;;35.10;28.63;;;;;;;18.00;100.00;101154.31;5065559;28;20028;-68
2023/09/12 06:23:03;;;;;;;38.25;30.40;;;;;;;17.97;100.00;101158.63;5071939;28;20115;-69
2023/09/12 06:25:29;;;;;;;35.30;28.55;;;;;;;17.93;100.00;101155.69;5071548;28;20116;-69
2023/09/12 06:27:54;;;;;;;36.38;29.33;;;;;;;17.90;100.00;101155.56;5071543;28;20103;-69
2023/09/12 06:30:20;;;;;;;34.60;29.55;;;;;;;17.87;100.00;101159.06;5058182;28;20049;-69
2023/09/12 06:32:45;;;;;;;37.33;29.05;;;;;;;17.88;100.00;101161.50;5055866;28;20044;-69
2023/09/12 06:35:10;;;;;;;38.33;30.08;;;;;;;17.90;100.00;101155.56;5063546;28;20039;-69
2023/09/12 06:37:39;;;;;;;36.28;29.25;;;;;;;17.95;100.00;101155.34;5058983;28;20776;-69
2023/09/12 06:40:05;;;;;;;37.58;29.67;;;;;;;18.02;100.00;101155.59;5062819;28;20068;-68
2023/09/12 06:42:30;;;;;;;39.83;29.58;;;;;;;18.05;100.00;101157.69;5066239;28;20028;-68
2023/09/12 06:44:56;;;;;;;38.08;29.55;;;;;;;18.06;100.00;101162.13;5063759;28;20533;-68
2023/09/12 06:47:21;;;;;;;37.67;29.95;;;;;;;18.07;100.00;101160.13;5066197;28;20024;-69
2023/09/12 06:49:46;;;;;;;37.05;29.27;;;;;;;18.00;100.00;101162.72;5073513;28;20039;-68
2023/09/12 06:52:13;;;;;;;36.45;28.83;;;;;;;18.04;100.00;101170.06;5073518;28;20036;-69
2023/09/12 06:54:38;;;;;;;36.53;29.05;;;;;;;18.04;100.00;101170.06;5060924;28;20059;-68
2023/09/12 06:57:04;;;;;;;38.13;29.42;;;;;;;18.13;100.00;101169.97;5065196;28;20032;-68
2023/09/12 06:59:29;;;;;;;41.85;30.38;;;;;;;18.16;100.00;101172.03;5064271;28;20032;-68
2023/09/12 07:01:54;;;;;;;39.50;30.55;;;;;;;18.19;100.00;101167.72;5066019;28;20032;-68
2023/09/12 07:04:20;;;;;;;38.90;29.73;;;;;;;18.23;100.00;101169.47;5065145;28;20048;-68
2023/09/12 07:06:45;;;;;;;38.53;29.00;;;;;;;18.23;100.00;101169.47;5063333;28;20039;-68
2023/09/12 07:09:14;;;;;;;40.67;31.55;;;;;;;18.18;100.00;101180.91;5066178;28;20029;-69
2023/09/12 07:11:40;;;;;;;41.17;30.58;;;;;;;18.19;100.00;101179.75;5063558;28;20055;-68
2023/09/12 07:14:06;;;;;;;39.47;30.48;;;;;;;18.21;100.00;101171.81;5064750;28;20388;-68
2023/09/12 07:16:31;;;;;;;39.47;31.10;;;;;;;18.23;100.00;101172.25;5064165;28;20045;-69
2023/09/12 07:18:57;;;;;;;36.28;29.05;;;;;;;18.22;100.00;101176.25;5058683;28;20067;-68
2023/09/12 07:21:22;;;;;;;37.50;29.48;;;;;;;18.35;100.00;101179.03;5066965;28;20063;-68
2023/09/12 07:23:48;;;;;;;38.00;29.05;;;;;;;18.36;100.00;101180.66;5072922;28;20464;-68
2023/09/12 07:26:14;;;;;;;42.78;31.40;;;;;;;18.40;100.00;101192.81;5073628;28;20689;-68
2023/09/12 07:28:40;;;;;;;39.65;29.90;;;;;;;18.42;100.00;101190.44;5074367;28;20793;-68
2023/09/12 07:31:05;;;;;;;37.70;29.42;;;;;;;18.51;100.00;101185.56;5074494;28;20612;-68
2023/09/12 07:33:31;;;;;;;40.70;30.15;;;;;;;18.59;100.00;101178.19;5074766;28;20039;-68
2023/09/12 07:35:56;;;;;;;37.65;29.48;;;;;;;18.68;100.00;101184.47;5074606;28;20402;-69
2023/09/12 07:38:22;;;;;;;37.50;29.58;;;;;;;18.81;100.00;101198.47;5074538;28;20040;-68
2023/09/12 07:40:47;;;;;;;39.28;29.30;;;;;;;18.82;100.00;101188.88;5073991;28;20024;-68
2023/09/12 07:43:12;;;;;;;39.03;30.02;;;;;;;18.85;100.00;101188.97;5073840;28;20024;-69
2023/09/12 07:45:39;;;;;;;37.60;27.98;;;;;;;19.01;100.00;101188.25;5073211;28;20111;-69
2023/09/12 07:48:10;;;;;;;38.33;29.17;;;;;;;19.09;100.00;101198.50;5073863;28;20056;-68
2023/09/12 07:50:38;;;;;;;37.88;30.23;;;;;;;19.21;100.00;101203.28;5073383;28;20032;-68
2023/09/12 07:53:04;;;;;;;38.08;30.63;;;;;;;19.28;100.00;101199.81;5073791;28;20103;-68
2023/09/12 07:55:33;;;;;;;43.53;31.75;;;;;;;19.26;100.00;101197.41;5073749;28;20441;-67
2023/09/12 07:57:58;;;;;;;38.15;29.90;;;;;;;19.27;100.00;101201.03;5073834;28;20058;-68
2023/09/12 08:00:24;;;;;;;38.35;29.95;;;;;;;19.26;100.00;101193.78;5073668;28;20451;-69
2023/09/12 08:02:50;;;;;;;44.60;34.00;;;;;;;19.30;100.00;101189.06;5073628;28;20024;-67
2023/09/12 08:05:15;;;;;;;45.55;36.08;;;;;;;19.35;100.00;101190.81;5074062;28;20102;-68
2023/09/12 08:07:40;;;;;;;41.92;33.08;;;;;;;19.44;100.00;101183.03;5073377;28;20028;-68
2023/09/12 08:10:06;;;;;;;39.10;30.00;;;;;;;19.58;100.00;101191.03;5070741;28;20032;-68
2023/09/12 08:12:32;;;;;;;37.65;28.80;;;;;;;19.64;100.00;101186.81;5062061;28;20032;-67
2023/09/12 08:14:57;;;;;;;36.95;30.60;;;;;;;19.74;100.00;101182.63;5064443;28;20365;-68
2023/09/12 08:17:23;;;;;;;38.65;30.23;;;;;;;19.86;100.00;101195.78;5073588;28;20421;-68
2023/09/12 08:19:48;;;;;;;38.38;30.10;;;;;;;19.94;100.00;101194.78;5073500;28;20060;-68
2023/09/12 08:22:14;;;;;;;39.70;30.83;;;;;;;19.99;100.00;101194.53;5073267;28;20032;-68
2023/09/12 08:24:39;;;;;;;37.60;30.23;;;;;;;20.01;100.00;101197.81;5072281;28;20031;-68
2023/09/12 08:27:06;;;;;;;38.03;30.05;;;;;;;20.13;100.00;101210.09;5067314;28;20021;-68
2023/09/12 08:29:32;;;;;;;34.60;28.10;;;;;;;20.17;100.00;101213.81;5064715;28;20040;-68
2023/09/12 08:31:57;;;;;;;33.83;26.35;;;;;;;20.26;100.00;101220.06;5055678;28;20075;-68
2023/09/12 08:34:23;;;;;;;29.77;24.55;;;;;;;20.33;100.00;101214.63;5062899;28;20064;-69
2023/09/12 08:36:48;;;;;;;32.03;23.58;;;;;;;20.44;100.00;101217.72;5065773;28;20021;-69
2023/09/12 08:39:16;;;;;;;29.33;24.27;;;;;;;20.53;100.00;101218.31;5063032;28;20096;-70
2023/09/12 08:41:41;;;;;;;32.65;25.58;;;;;;;20.59;100.00;101224.47;5053923;28;20033;-70
2023/09/12 08:44:08;;;;;;;30.85;23.98;;;;;;;20.66;100.00;101224.63;5053903;28;20455;-70
2023/09/12 08:46:33;;;;;;;29.13;21.92;;;;;;;20.69;100.00;101235.13;5051213;28;20032;-69
2023/09/12 08:48:59;;;;;;;31.63;22.70;;;;;;;20.73;100.00;101232.41;5052774;28;20420;-69
2023/09/12 08:51:25;;;;;;;30.52;23.20;;;;;;;20.83;100.00;101233.88;5053814;28;20435;-69
2023/09/12 08:53:51;;;;;;;28.42;21.92;;;;;;;20.96;100.00;101242.97;5053636;28;20087;-69
2023/09/12 08:56:18;;;;;;;27.88;21.42;;;;;;;21.01;100.00;101246.31;5053632;28;20036;-69
2023/09/12 08:58:43;;;;;;;25.85;19.17;;;;;;;21.12;100.00;101240.13;5052882;28;20291;-69
2023/09/12 09:01:10;;;;;;;27.42;21.08;;;;;;;21.21;100.00;101240.72;5053678;28;20029;-72
2023/09/12 09:03:37;;;;;;;26.80;19.75;;;;;;;21.30;100.00;101255.38;5054712;28;20037;-69
2023/09/12 09:06:04;;;;;;;27.40;20.02;;;;;;;21.36;100.00;101241.81;5073405;28;20052;-69
2023/09/12 09:08:31;;;;;;;26.38;19.65;;;;;;;21.38;100.00;101249.88;5073412;28;20464;-68
2023/09/12 09:11:02;;;;;;;28.58;21.88;;;;;;;21.44;100.00;101249.22;5073737;28;20050;-69
2023/09/12 09:13:27;;;;;;;27.48;21.27;;;;;;;21.44;100.00;101243.59;5073326;28;20349;-69
2023/09/12 09:16:16;;;;;;;27.10;20.73;;;;;;;21.51;100.00;101251.38;5073316;28;20024;-69
2023/09/12 09:19:03;;;;;;;25.35;19.95;;;;;;;21.38;100.00;101259.16;5063336;28;20036;-69
2023/09/12 09:21:32;;;;;;;25.77;19.92;;;;;;;21.30;100.00;101249.75;5059746;28;20035;-68
2023/09/12 09:24:04;;;;;;;28.40;20.40;;;;;;;21.33;100.00;101249.00;5063400;28;20353;-69
2023/09/12 09:26:43;;;;;;;27.30;20.23;;;;;;;21.40;100.00;101253.94;5061229;28;20096;-69
2023/09/12 09:29:10;;;;;;;24.80;18.65;;;;;;;21.40;100.00;101244.69;5061874;28;20106;-69
2023/09/12 09:31:40;;;;;;;25.23;18.73;;;;;;;21.42;100.00;101231.09;5051730;28;20049;-68
2023/09/12 09:34:11;;;;;;;26.45;19.77;;;;;;;21.53;100.00;101222.84;5053796;28;20124;-68
2023/09/12 09:36:36;;;;;;;27.88;19.92;;;;;;;21.60;100.00;101220.19;5052688;28;20074;-68
2023/09/12 09:39:04;;;;;;;26.00;19.48;;;;;;;21.67;100.00;101228.78;5052668;28;20052;-69
2023/09/12 09:41:30;;;;;;;25.50;19.65;;;;;;;21.72;100.00;101231.28;5053227;28;20467;-69
2023/09/12 09:43:56;;;;;;;26.17;19.52;;;;;;;21.76;100.00;101225.72;5052329;28;20037;-69
2023/09/12 09:46:21;;;;;;;27.00;19.88;;;;;;;21.81;100.00;101220.59;5069747;28;20116;-67
2023/09/12 09:48:51;;;;;;;24.75;18.70;;;;;;;21.98;100.00;101224.09;5091924;28;20039;-67
2023/09/12 09:51:17;;;;;;;23.13;16.88;;;;;;;22.13;100.00;101230.78;5094788;28;20115;-68
2023/09/12 09:53:43;;;;;;;24.27;18.17;;;;;;;22.22;99.16;101233.34;5094817;28;20036;-67
2023/09/12 09:56:14;;;;;;;26.20;18.27;;;;;;;22.25;97.04;101224.97;5089018;28;20018;-67
2023/09/12 09:58:53;;;;;;;25.77;19.52;;;;;;;22.39;96.92;101215.09;5072051;28;20029;-67
2023/09/12 10:01:25;;;;;;;24.10;16.60;;;;;;;22.49;95.30;101211.66;5069068;28;20032;-66
2023/09/12 10:03:52;;;;;;;23.05;15.48;;;;;;;22.54;94.28;101208.53;5063382;28;20056;-67
2023/09/12 10:06:19;;;;;;;25.38;17.17;;;;;;;22.58;90.21;101217.81;5070152;28;20567;-68
2023/09/12 10:08:49;;;;;;;23.88;16.80;;;;;;;22.70;92.25;101216.81;5074840;28;20028;-67
2023/09/12 10:11:16;;;;;;;26.38;17.73;;;;;;;22.82;92.84;101215.75;5081377;28;20042;-67
2023/09/12 10:13:48;;;;;;;24.05;17.25;;;;;;;23.00;93.85;101220.81;5075165;28;20081;-69
2023/09/12 10:16:16;;;;;;;23.98;16.98;;;;;;;22.96;90.07;101220.78;5070156;28;20024;-66
2023/09/12 10:18:56;;;;;;;23.30;16.00;;;;;;;23.15;91.87;101213.34;5063229;28;20387;-67
2023/09/12 10:21:30;;;;;;;25.75;18.58;;;;;;;23.30;91.29;101218.00;5063047;28;20040;-67
2023/09/12 10:23:57;;;;;;;22.70;16.27;;;;;;;23.27;87.15;101215.97;5062161;28;20029;-66
2023/09/12 10:26:24;;;;;;;23.02;15.63;;;;;;;23.28;88.73;101211.94;5061909;28;20021;-66
2023/09/12 10:28:51;;;;;;;23.80;14.98;;;;;;;23.31;86.69;101205.50;5061510;28;20024;-67
2023/09/12 10:31:17;;;;;;;23.40;16.30;;;;;;;23.38;86.83;101212.44;5062204;28;20037;-67
2023/09/12 10:33:44;;;;;;;25.67;17.95;;;;;;;23.38;87.72;101212.44;5063007;28;20415;-67
2023/09/12 10:36:11;;;;;;;23.13;15.95;;;;;;;23.44;87.10;101205.25;5065021;28;20027;-67
2023/09/12 10:38:44;;;;;;;22.42;15.52;;;;;;;23.42;84.92;101210.47;5060133;28;20040;-68
2023/09/12 10:41:11;;;;;;;25.63;18.38;;;;;;;23.49;86.51;101213.34;5055539;28;20029;-68
2023/09/12 10:43:38;;;;;;;26.45;17.65;;;;;;;23.50;86.20;101204.53;5051816;28;20036;-68
2023/09/12 10:46:03;;;;;;;24.02;17.77;;;;;;;23.48;84.51;101198.44;5053418;28;20048;-67
2023/09/12 10:48:31;;;;;;;25.65;18.77;;;;;;;23.47;85.69;101196.81;5053484;28;20472;-68
2023/09/12 10:51:00;;;;;;;24.75;17.58;;;;;;;23.50;84.91;101193.22;5053271;28;20041;-68
2023/09/12 10:53:28;;;;;;;26.98;18.75;;;;;;;23.51;85.67;101200.50;5053237;28;20064;-67
2023/09/12 10:56:14;;;;;;;23.55;17.52;;;;;;;23.65;85.43;101197.00;5053343;28;20025;-68
2023/09/12 10:59:06;;;;;;;24.63;17.60;;;;;;;23.74;86.21;101191.03;5053072;28;20032;-68